Flight Track Log - Related Links

Times and Time Zones

All times are in EDT time to prevent confusion due to time zone crossing. See the N730C flight status page for this flight to view local times or setup timezone preferences in your user account.

Time Position Orientation Groundspeed Altitude Reporting Facility
EDT Latitude Longitude Course Direction KTS MPH feet Rate Location/Type
09:56AM 34.0500 -83.7667 79° East 138 159 6,600  Level Atlanta TRACON
09:57AM 34.0667 -83.7333 59° Northeast 133 153 7,300 551 Climbing Atlanta TRACON
09:58AM 34.0903 -83.6953 53° Northeast 153 176 7,500 115 Climbing Atlanta Center
09:59AM 34.1006 -83.6425 77° East 171 197 7,500  Level Atlanta Center
10:00AM 34.1169 -83.5922 68° East 189 217 7,500  Level Atlanta Center
10:01AM 34.1333 -83.5469 66° East 175 201 7,500  Level Atlanta Center
10:02AM 33.8818 -83.7090 79° East  Level FlightAware Approximate
10:02AM 34.1519 -83.4967 66° East 163 188 7,500  Level Atlanta Center
10:03AM 34.1706 -83.4464 66° East 163 188 7,500  Level Atlanta Center
10:04AM 34.1892 -83.3958 66° East 158 182 7,500  Level Atlanta Center
10:05AM 34.2056 -83.3456 68° East 158 182 7,500  Level Atlanta Center
10:06AM 34.2283 -83.2975 60° Northeast 158 182 7,500  Level Atlanta Center
10:07AM 34.2467 -83.2472 66° East 158 182 7,500  Level Atlanta Center
10:08AM 34.2653 -83.1992 65° Northeast 153 176 7,500  Level Atlanta Center
10:09AM 34.2814 -83.1464 70° East 153 176 7,500  Level Atlanta Center
10:10AM 34.3000 -83.0983 65° Northeast 153 176 7,500  Level Atlanta Center
10:11AM 34.3203 -83.0428 66° East 160 184 7,500  Level Atlanta Center
10:12AM 34.3367 -82.9997 65° Northeast 160 184 7,500  Level Atlanta Center
10:13AM 34.3592 -82.9367 67° East 165 190 7,500  Level Atlanta Center
10:14AM 34.3794 -82.8886 63° Northeast 160 184 7,500  Level Atlanta Center
10:15AM 34.3978 -82.8381 66° East 160 184 7,500  Level Atlanta Center
10:16AM 34.4078 -82.7825 78° East 160 184 7,500  Level Atlanta Center
10:17AM 34.4197 -82.7269 75° East 160 184 7,500 -50 Level Atlanta Center
10:18AM 34.4400 -82.6761 64° Northeast 165 190 7,400 -350 Descending Atlanta Center
10:19AM 34.4664 -82.6253 58° Northeast 165 190 6,800 -600 Descending Atlanta Center
10:20AM 34.4972 -82.5794 51° Northeast 176 203 6,200 -600 Descending Atlanta Center
10:22AM 34.5578 -82.4996 59° Northeast  Level Estimated
10:29AM 34.8058 -82.1552 59° Northeast  Level FlightAware Approximate
10:30AM 34.8167 -82.1333 59° Northeast  Level FlightAware Approximate
10:31AM 34.8229 -82.1482 59° Northeast  Level Estimated
10:32AM 34.8229 -82.1482 59° Northeast  Level Estimated
10:33AM 34.8229 -82.1482 59° Northeast  Level Estimated
10:34AM 34.8229 -82.1482 59° Northeast  Level Estimated
10:35AM 34.8229 -82.1482 59° Northeast  Level Estimated
10:36AM 34.8229 -82.1482 59° Northeast  Level Estimated
10:37AM 34.8229 -82.1482 59° Northeast  Level Estimated
10:38AM 34.8229 -82.1482 59° Northeast  Level Estimated
10:39AM 34.8229 -82.1482 59° Northeast  Level Estimated
10:40AM 34.8229 -82.1482 59° Northeast  Level Estimated
10:41AM 34.8229 -82.1482 59° Northeast  Level Estimated

Login

Don't have an account? Register now (free) for customized features, flight alerts, and more!